sensor_id;sensor_type;location;lat;lon;timestamp;pressure;altitude;pressure_sealevel;temperature;humidity
12757;BME280;31601;48.042;12.240;2023-04-21T00:00:48;95828.50;;;9.69;66.60
12757;BME280;31601;48.042;12.240;2023-04-21T00:03:14;95828.47;;;9.62;66.76
12757;BME280;31601;48.042;12.240;2023-04-21T00:05:41;95821.53;;;9.55;66.58
12757;BME280;31601;48.042;12.240;2023-04-21T00:08:08;95827.53;;;9.48;66.96
12757;BME280;31601;48.042;12.240;2023-04-21T00:10:34;95823.84;;;9.43;66.68
12757;BME280;31601;48.042;12.240;2023-04-21T00:13:02;95829.00;;;9.36;66.72
12757;BME280;31601;48.042;12.240;2023-04-21T00:15:28;95821.25;;;9.28;66.93
12757;BME280;31601;48.042;12.240;2023-04-21T00:17:55;95822.66;;;9.24;67.08
12757;BME280;31601;48.042;12.240;2023-04-21T00:20:22;95816.47;;;9.10;67.75
12757;BME280;31601;48.042;12.240;2023-04-21T00:22:51;95814.28;;;9.13;67.50
12757;BME280;31601;48.042;12.240;2023-04-21T00:25:17;95809.84;;;9.14;67.24
12757;BME280;31601;48.042;12.240;2023-04-21T00:27:43;95803.06;;;8.83;68.41
12757;BME280;31601;48.042;12.240;2023-04-21T00:30:12;95810.56;;;8.71;68.71
12757;BME280;31601;48.042;12.240;2023-04-21T00:32:38;95811.09;;;8.82;68.45
12757;BME280;31601;48.042;12.240;2023-04-21T00:35:05;95806.31;;;8.85;67.85
12757;BME280;31601;48.042;12.240;2023-04-21T00:37:32;95807.28;;;8.84;68.08
12757;BME280;31601;48.042;12.240;2023-04-21T00:39:58;95802.72;;;8.71;68.79
12757;BME280;31601;48.042;12.240;2023-04-21T00:42:25;95803.16;;;8.75;68.30
12757;BME280;31601;48.042;12.240;2023-04-21T00:44:51;95804.38;;;8.57;69.25
12757;BME280;31601;48.042;12.240;2023-04-21T00:47:19;95805.78;;;8.60;69.12
12757;BME280;31601;48.042;12.240;2023-04-21T00:49:46;95803.16;;;8.60;69.25
12757;BME280;31601;48.042;12.240;2023-04-21T00:52:13;95803.81;;;8.62;68.87
12757;BME280;31601;48.042;12.240;2023-04-21T00:54:42;95804.06;;;8.67;68.93
12757;BME280;31601;48.042;12.240;2023-04-21T00:57:09;95810.47;;;8.65;69.07
12757;BME280;31601;48.042;12.240;2023-04-21T00:59:36;95798.03;;;8.67;68.93
12757;BME280;31601;48.042;12.240;2023-04-21T01:02:03;95810.47;;;8.65;69.12
12757;BME280;31601;48.042;12.240;2023-04-21T01:04:31;95802.72;;;8.56;69.16
12757;BME280;31601;48.042;12.240;2023-04-21T01:07:01;95803.44;;;8.50;69.35
12757;BME280;31601;48.042;12.240;2023-04-21T01:09:29;95800.28;;;8.55;69.10
12757;BME280;31601;48.042;12.240;2023-04-21T01:12:02;95801.81;;;8.49;68.70
12757;BME280;31601;48.042;12.240;2023-04-21T01:14:29;95798.28;;;8.42;69.36
12757;BME280;31601;48.042;12.240;2023-04-21T01:16:55;95787.91;;;8.34;69.09
12757;BME280;31601;48.042;12.240;2023-04-21T01:19:23;95782.59;;;8.27;69.29
12757;BME280;31601;48.042;12.240;2023-04-21T01:21:51;95777.47;;;8.19;69.30
12757;BME280;31601;48.042;12.240;2023-04-21T01:24:21;95783.06;;;8.16;69.35
12757;BME280;31601;48.042;12.240;2023-04-21T01:26:48;95779.63;;;8.15;69.46
12757;BME280;31601;48.042;12.240;2023-04-21T01:29:14;95779.91;;;8.05;69.78
12757;BME280;31601;48.042;12.240;2023-04-21T01:31:41;95786.19;;;7.96;69.50
12757;BME280;31601;48.042;12.240;2023-04-21T01:34:08;95781.53;;;7.68;70.46
12757;BME280;31601;48.042;12.240;2023-04-21T01:36:35;95781.09;;;7.80;70.05
12757;BME280;31601;48.042;12.240;2023-04-21T01:39:03;95777.41;;;7.74;70.26
12757;BME280;31601;48.042;12.240;2023-04-21T01:41:29;95782.06;;;7.64;70.24
12757;BME280;31601;48.042;12.240;2023-04-21T01:43:55;95787.47;;;7.62;70.27
12757;BME280;31601;48.042;12.240;2023-04-21T01:46:22;95786.19;;;7.58;70.44
12757;BME280;31601;48.042;12.240;2023-04-21T01:48:48;95791.59;;;7.57;70.53
12757;BME280;31601;48.042;12.240;2023-04-21T01:51:15;95787.91;;;7.51;70.66
12757;BME280;31601;48.042;12.240;2023-04-21T01:53:41;95788.41;;;7.46;70.96
12757;BME280;31601;48.042;12.240;2023-04-21T01:56:12;95779.75;;;7.46;70.42
12757;BME280;31601;48.042;12.240;2023-04-21T01:58:38;95781.13;;;7.42;70.77
12757;BME280;31601;48.042;12.240;2023-04-21T02:01:05;95789.28;;;7.39;70.96
12757;BME280;31601;48.042;12.240;2023-04-21T02:03:31;95794.50;;;7.39;71.23
12757;BME280;31601;48.042;12.240;2023-04-21T02:05:58;95785.56;;;7.33;70.79
12757;BME280;31601;48.042;12.240;2023-04-21T02:08:24;95790.97;;;7.31;71.20
12757;BME280;31601;48.042;12.240;2023-04-21T02:10:51;95783.47;;;7.28;71.31
12757;BME280;31601;48.042;12.240;2023-04-21T02:13:19;95788.81;;;7.35;71.30
12757;BME280;31601;48.042;12.240;2023-04-21T02:15:45;95792.53;;;7.41;71.14
12757;BME280;31601;48.042;12.240;2023-04-21T02:18:11;95793.16;;;7.43;71.09
12757;BME280;31601;48.042;12.240;2023-04-21T02:20:38;95792.81;;;7.46;71.18
12757;BME280;31601;48.042;12.240;2023-04-21T02:23:05;95795.56;;;7.52;71.39
12757;BME280;31601;48.042;12.240;2023-04-21T02:25:31;95790.78;;;7.56;71.16
12757;BME280;31601;48.042;12.240;2023-04-21T02:27:58;95796.44;;;7.60;71.06
12757;BME280;31601;48.042;12.240;2023-04-21T02:30:26;95794.31;;;7.63;70.86
12757;BME280;31601;48.042;12.240;2023-04-21T02:32:52;95793.97;;;7.66;70.90
12757;BME280;31601;48.042;12.240;2023-04-21T02:35:19;95790.19;;;7.69;70.89
12757;BME280;31601;48.042;12.240;2023-04-21T02:37:45;95792.59;;;7.56;71.19
12757;BME280;31601;48.042;12.240;2023-04-21T02:40:12;95796.69;;;7.50;71.14
12757;BME280;31601;48.042;12.240;2023-04-21T02:42:38;95794.16;;;7.42;71.57
12757;BME280;31601;48.042;12.240;2023-04-21T02:45:06;95799.41;;;7.33;71.26
12757;BME280;31601;48.042;12.240;2023-04-21T02:47:34;95797.16;;;7.30;71.54
12757;BME280;31601;48.042;12.240;2023-04-21T02:50:00;95805.31;;;7.35;71.48
12757;BME280;31601;48.042;12.240;2023-04-21T02:52:27;95796.13;;;7.40;71.58
12757;BME280;31601;48.042;12.240;2023-04-21T02:54:53;95789.28;;;7.39;71.33
12757;BME280;31601;48.042;12.240;2023-04-21T02:57:19;95797.84;;;7.24;72.12
12757;BME280;31601;48.042;12.240;2023-04-21T02:59:46;95787.41;;;7.47;71.49
12757;BME280;31601;48.042;12.240;2023-04-21T03:02:12;95784.94;;;7.54;70.97
12757;BME280;31601;48.042;12.240;2023-04-21T03:04:40;95785.03;;;7.61;71.07
12757;BME280;31601;48.042;12.240;2023-04-21T03:07:10;95783.69;;;7.65;71.17
12757;BME280;31601;48.042;12.240;2023-04-21T03:09:37;95789.66;;;7.50;71.61
12757;BME280;31601;48.042;12.240;2023-04-21T03:12:03;95784.53;;;7.42;71.78
12757;BME280;31601;48.042;12.240;2023-04-21T03:14:29;95791.31;;;7.28;71.92
12757;BME280;31601;48.042;12.240;2023-04-21T03:16:56;95789.28;;;7.39;71.80
12757;BME280;31601;48.042;12.240;2023-04-21T03:19:22;95779.94;;;7.44;71.66
12757;BME280;31601;48.042;12.240;2023-04-21T03:21:50;95787.06;;;7.50;71.69
12757;BME280;31601;48.042;12.240;2023-04-21T03:24:16;95795.66;;;7.59;71.15
12757;BME280;31601;48.042;12.240;2023-04-21T03:26:43;95792.16;;;7.67;71.23
12757;BME280;31601;48.042;12.240;2023-04-21T03:29:09;95792.44;;;7.72;70.95
12757;BME280;31601;48.042;12.240;2023-04-21T03:31:36;95797.13;;;7.77;71.12
12757;BME280;31601;48.042;12.240;2023-04-21T03:34:02;95791.91;;;7.77;70.75
12757;BME280;31601;48.042;12.240;2023-04-21T03:36:29;95786.69;;;7.77;71.01
12757;BME280;31601;48.042;12.240;2023-04-21T03:38:56;95795.53;;;7.76;70.87
12757;BME280;31601;48.042;12.240;2023-04-21T03:41:23;95793.84;;;7.60;70.98
12757;BME280;31601;48.042;12.240;2023-04-21T03:43:50;95798.16;;;7.29;71.60
12757;BME280;31601;48.042;12.240;2023-04-21T03:46:17;95803.72;;;7.26;71.70
12757;BME280;31601;48.042;12.240;2023-04-21T03:48:44;95804.00;;;7.31;71.27
12757;BME280;31601;48.042;12.240;2023-04-21T03:51:11;95799.41;;;7.33;71.03
12757;BME280;31601;48.042;12.240;2023-04-21T03:53:38;95796.25;;;7.23;71.85
12757;BME280;31601;48.042;12.240;2023-04-21T03:56:06;95800.06;;;7.35;71.63
12757;BME280;31601;48.042;12.240;2023-04-21T03:58:33;95799.91;;;7.37;71.59
12757;BME280;31601;48.042;12.240;2023-04-21T04:01:00;95792.88;;;7.38;71.75
12757;BME280;31601;48.042;12.240;2023-04-21T04:03:26;95795.41;;;7.46;71.25
12757;BME280;31601;48.042;12.240;2023-04-21T04:05:53;95780.59;;;7.46;71.28
12757;BME280;31601;48.042;12.240;2023-04-21T04:08:20;95782.84;;;7.49;71.61
12757;BME280;31601;48.042;12.240;2023-04-21T04:10:46;95784.53;;;7.42;71.81
12757;BME280;31601;48.042;12.240;2023-04-21T04:13:14;95786.69;;;7.39;71.74
12757;BME280;31601;48.042;12.240;2023-04-21T04:15:41;95783.56;;;7.43;71.69
12757;BME280;31601;48.042;12.240;2023-04-21T04:18:07;95790.19;;;7.23;72.43
12757;BME280;31601;48.042;12.240;2023-04-21T04:20:34;95786.50;;;7.17;72.16
12757;BME280;31601;48.042;12.240;2023-04-21T04:23:01;95783.03;;;7.25;71.95
12757;BME280;31601;48.042;12.240;2023-04-21T04:25:27;95784.81;;;7.24;71.67
12757;BME280;31601;48.042;12.240;2023-04-21T04:27:54;95788.69;;;7.28;71.58
12757;BME280;31601;48.042;12.240;2023-04-21T04:30:23;95788.47;;;7.38;71.87
12757;BME280;31601;48.042;12.240;2023-04-21T04:32:52;95780.09;;;7.43;71.76
12757;BME280;31601;48.042;12.240;2023-04-21T04:35:18;95780.59;;;7.46;71.61
12757;BME280;31601;48.042;12.240;2023-04-21T04:37:45;95786.63;;;7.47;72.21
12757;BME280;31601;48.042;12.240;2023-04-21T04:40:11;95788.09;;;7.64;71.50
12757;BME280;31601;48.042;12.240;2023-04-21T04:42:38;95790.44;;;7.59;71.92
12757;BME280;31601;48.042;12.240;2023-04-21T04:45:05;95781.44;;;7.62;72.11
12757;BME280;31601;48.042;12.240;2023-04-21T04:47:34;95788.94;;;7.65;71.84
12757;BME280;31601;48.042;12.240;2023-04-21T04:50:00;95785.97;;;7.68;71.66
12757;BME280;31601;48.042;12.240;2023-04-21T04:52:27;95787.53;;;7.54;71.82
12757;BME280;31601;48.042;12.240;2023-04-21T04:54:53;95789.47;;;7.37;72.60
12757;BME280;31601;48.042;12.240;2023-04-21T04:57:19;95780.44;;;7.63;71.65
12757;BME280;31601;48.042;12.240;2023-04-21T04:59:46;95780.50;;;7.55;71.31
12757;BME280;31601;48.042;12.240;2023-04-21T05:02:12;95781.13;;;7.57;72.00
12757;BME280;31601;48.042;12.240;2023-04-21T05:04:41;95776.41;;;7.60;71.92
12757;BME280;31601;48.042;12.240;2023-04-21T05:07:07;95774.06;;;7.65;72.06
12757;BME280;31601;48.042;12.240;2023-04-21T05:09:33;95781.03;;;7.50;72.74
12757;BME280;31601;48.042;12.240;2023-04-21T05:12:00;95776.59;;;7.74;72.27
12757;BME280;31601;48.042;12.240;2023-04-21T05:14:27;95777.78;;;7.71;71.85
12757;BME280;31601;48.042;12.240;2023-04-21T05:16:53;95781.84;;;7.88;72.09
12757;BME280;31601;48.042;12.240;2023-04-21T05:19:20;95790.16;;;8.07;71.81
12757;BME280;31601;48.042;12.240;2023-04-21T05:21:47;95789.34;;;8.21;71.60
12757;BME280;31601;48.042;12.240;2023-04-21T05:24:14;95791.78;;;8.38;71.05
12757;BME280;31601;48.042;12.240;2023-04-21T05:26:41;95803.91;;;8.54;70.86
12757;BME280;31601;48.042;12.240;2023-04-21T05:29:07;95802.06;;;8.69;70.48
12757;BME280;31601;48.042;12.240;2023-04-21T05:31:33;95799.63;;;8.83;70.19
12757;BME280;31601;48.042;12.240;2023-04-21T05:34:00;95795.44;;;8.52;70.00
12757;BME280;31601;48.042;12.240;2023-04-21T05:36:26;95799.22;;;8.64;70.17
12757;BME280;31601;48.042;12.240;2023-04-21T05:38:55;95804.06;;;8.82;70.03
12757;BME280;31601;48.042;12.240;2023-04-21T05:41:22;95809.19;;;8.90;70.15
12757;BME280;31601;48.042;12.240;2023-04-21T05:43:48;95808.66;;;8.80;70.18
12757;BME280;31601;48.042;12.240;2023-04-21T05:46:15;95813.84;;;9.10;69.93
12757;BME280;31601;48.042;12.240;2023-04-21T05:48:41;95808.66;;;9.17;69.28
12757;BME280;31601;48.042;12.240;2023-04-21T05:51:08;95807.88;;;9.16;69.62
12757;BME280;31601;48.042;12.240;2023-04-21T05:53:35;95802.00;;;9.36;69.34
12757;BME280;31601;48.042;12.240;2023-04-21T05:56:04;95799.53;;;9.49;69.28
12757;BME280;31601;48.042;12.240;2023-04-21T05:58:31;95803.44;;;9.38;69.48
12757;BME280;31601;48.042;12.240;2023-04-21T06:00:58;95810.25;;;9.54;69.45
12757;BME280;31601;48.042;12.240;2023-04-21T06:03:24;95802.00;;;9.79;68.74
12757;BME280;31601;48.042;12.240;2023-04-21T06:05:52;95800.81;;;9.81;68.22
12757;BME280;31601;48.042;12.240;2023-04-21T06:08:19;95794.06;;;9.94;67.96
12757;BME280;31601;48.042;12.240;2023-04-21T06:10:45;95794.38;;;9.84;67.47
12757;BME280;31601;48.042;12.240;2023-04-21T06:13:13;95790.19;;;9.90;67.01
12757;BME280;31601;48.042;12.240;2023-04-21T06:15:39;95787.06;;;10.01;66.61
12757;BME280;31601;48.042;12.240;2023-04-21T06:18:06;95787.56;;;9.90;66.95
12757;BME280;31601;48.042;12.240;2023-04-21T06:20:32;95786.28;;;10.07;66.42
12757;BME280;31601;48.042;12.240;2023-04-21T06:22:59;95790.66;;;10.28;65.97
12757;BME280;31601;48.042;12.240;2023-04-21T06:25:25;95790.78;;;10.13;67.17
12757;BME280;31601;48.042;12.240;2023-04-21T06:27:51;95779.97;;;10.30;66.63
12757;BME280;31601;48.042;12.240;2023-04-21T06:30:19;95772.88;;;10.24;66.62
12757;BME280;31601;48.042;12.240;2023-04-21T06:32:46;95771.66;;;10.54;66.63
12757;BME280;31601;48.042;12.240;2023-04-21T06:35:12;95776.38;;;10.72;65.45
12757;BME280;31601;48.042;12.240;2023-04-21T06:37:39;95779.13;;;10.57;66.05
12757;BME280;31601;48.042;12.240;2023-04-21T06:40:06;95770.56;;;10.84;65.16
12757;BME280;31601;48.042;12.240;2023-04-21T06:42:33;95774.22;;;10.89;64.57
12757;BME280;31601;48.042;12.240;2023-04-21T06:44:59;95759.97;;;11.32;64.40
12757;BME280;31601;48.042;12.240;2023-04-21T06:47:28;95756.75;;;11.37;63.24
12757;BME280;31601;48.042;12.240;2023-04-21T06:49:54;95753.31;;;11.43;62.80
12757;BME280;31601;48.042;12.240;2023-04-21T06:52:21;95751.53;;;12.04;61.50
12757;BME280;31601;48.042;12.240;2023-04-21T06:54:47;95757.78;;;11.89;60.56
12757;BME280;31601;48.042;12.240;2023-04-21T06:57:13;95764.06;;;11.88;59.77
12757;BME280;31601;48.042;12.240;2023-04-21T06:59:41;95764.25;;;11.60;60.81
12757;BME280;31601;48.042;12.240;2023-04-21T07:02:08;95772.50;;;11.37;61.47
12757;BME280;31601;48.042;12.240;2023-04-21T07:04:36;95767.28;;;11.77;60.93
12757;BME280;31601;48.042;12.240;2023-04-21T07:07:02;95768.09;;;12.17;60.71
12757;BME280;31601;48.042;12.240;2023-04-21T07:09:28;95764.81;;;12.42;59.15
12757;BME280;31601;48.042;12.240;2023-04-21T07:11:57;95771.06;;;12.48;59.03
12757;BME280;31601;48.042;12.240;2023-04-21T07:14:24;95763.69;;;12.77;57.50
12757;BME280;31601;48.042;12.240;2023-04-21T07:16:50;95770.84;;;12.56;57.85
12757;BME280;31601;48.042;12.240;2023-04-21T07:19:17;95762.81;;;12.24;59.42
12757;BME280;31601;48.042;12.240;2023-04-21T07:21:44;95770.03;;;12.62;58.25
12757;BME280;31601;48.042;12.240;2023-04-21T07:24:11;95771.22;;;12.60;58.31
12757;BME280;31601;48.042;12.240;2023-04-21T07:26:37;95769.03;;;12.43;58.64
12757;BME280;31601;48.042;12.240;2023-04-21T07:29:04;95768.31;;;12.81;58.03
12757;BME280;31601;48.042;12.240;2023-04-21T07:31:30;95770.19;;;12.67;57.58
12757;BME280;31601;48.042;12.240;2023-04-21T07:33:56;95768.84;;;12.51;57.78
12757;BME280;31601;48.042;12.240;2023-04-21T07:36:23;95776.91;;;12.57;58.01
12757;BME280;31601;48.042;12.240;2023-04-21T07:38:51;95771.31;;;12.85;57.42
12757;BME280;31601;48.042;12.240;2023-04-21T07:41:18;95767.66;;;12.93;57.46
12757;BME280;31601;48.042;12.240;2023-04-21T07:43:44;95771.72;;;12.23;59.90
12757;BME280;31601;48.042;12.240;2023-04-21T07:46:11;95773.34;;;12.24;58.97
12757;BME280;31601;48.042;12.240;2023-04-21T07:48:38;95777.16;;;12.48;58.85
12757;BME280;31601;48.042;12.240;2023-04-21T07:51:04;95773.41;;;12.69;58.78
12757;BME280;31601;48.042;12.240;2023-04-21T07:53:31;95773.69;;;12.48;58.33
12757;BME280;31601;48.042;12.240;2023-04-21T07:55:59;95775.22;;;12.76;57.83
12757;BME280;31601;48.042;12.240;2023-04-21T07:58:25;95779.09;;;12.66;57.96
12757;BME280;31601;48.042;12.240;2023-04-21T08:00:52;95784.38;;;12.60;58.15
12757;BME280;31601;48.042;12.240;2023-04-21T08:03:18;95778.56;;;12.44;58.44
12757;BME280;31601;48.042;12.240;2023-04-21T08:05:45;95786.50;;;12.24;58.40
12757;BME280;31601;48.042;12.240;2023-04-21T08:08:11;95783.44;;;12.41;58.63
12757;BME280;31601;48.042;12.240;2023-04-21T08:10:38;95788.63;;;12.67;57.81
12757;BME280;31601;48.042;12.240;2023-04-21T08:13:06;95784.16;;;12.75;57.76
12757;BME280;31601;48.042;12.240;2023-04-21T08:15:33;95780.09;;;12.72;58.21
12757;BME280;31601;48.042;12.240;2023-04-21T08:17:59;95779.72;;;12.62;58.62
12757;BME280;31601;48.042;12.240;2023-04-21T08:20:26;95784.53;;;12.78;58.13
12757;BME280;31601;48.042;12.240;2023-04-21T08:22:52;95783.22;;;13.01;57.66
12757;BME280;31601;48.042;12.240;2023-04-21T08:25:19;95778.06;;;12.74;57.76
12757;BME280;31601;48.042;12.240;2023-04-21T08:27:46;95782.06;;;13.35;57.64
12757;BME280;31601;48.042;12.240;2023-04-21T08:30:14;95780.75;;;13.06;57.79
12757;BME280;31601;48.042;12.240;2023-04-21T08:32:41;95780.13;;;13.81;56.49
12757;BME280;31601;48.042;12.240;2023-04-21T08:35:08;95781.66;;;13.64;55.34
12757;BME280;31601;48.042;12.240;2023-04-21T08:37:35;95774.22;;;13.86;55.79
12757;BME280;31601;48.042;12.240;2023-04-21T08:40:01;95777.06;;;14.28;55.39
12757;BME280;31601;48.042;12.240;2023-04-21T08:42:28;95776.31;;;14.64;54.13
12757;BME280;31601;48.042;12.240;2023-04-21T08:44:55;95771.50;;;14.55;52.85
12757;BME280;31601;48.042;12.240;2023-04-21T08:47:23;95761.91;;;14.97;53.26
12757;BME280;31601;48.042;12.240;2023-04-21T08:49:50;95770.09;;;15.38;52.10
12757;BME280;31601;48.042;12.240;2023-04-21T08:52:18;95765.97;;;14.81;51.09
12757;BME280;31601;48.042;12.240;2023-04-21T08:54:45;95771.06;;;14.58;52.64
12757;BME280;31601;48.042;12.240;2023-04-21T08:57:11;95770.63;;;13.99;53.90
12757;BME280;31601;48.042;12.240;2023-04-21T08:59:38;95774.22;;;14.48;53.19
12757;BME280;31601;48.042;12.240;2023-04-21T09:02:09;95769.69;;;14.11;53.72
12757;BME280;31601;48.042;12.240;2023-04-21T09:04:40;95768.28;;;14.53;54.72
12757;BME280;31601;48.042;12.240;2023-04-21T09:07:06;95770.38;;;14.88;53.54
12757;BME280;31601;48.042;12.240;2023-04-21T09:09:39;95770.97;;;15.20;51.38
12757;BME280;31601;48.042;12.240;2023-04-21T09:12:16;95778.91;;;14.02;54.15
12757;BME280;31601;48.042;12.240;2023-04-21T09:14:43;95773.13;;;14.56;54.21
12757;BME280;31601;48.042;12.240;2023-04-21T09:17:09;95770.41;;;14.44;52.69
12757;BME280;31601;48.042;12.240;2023-04-21T09:19:36;95775.50;;;14.64;53.87
12757;BME280;31601;48.042;12.240;2023-04-21T09:22:04;95780.03;;;14.94;54.28
12757;BME280;31601;48.042;12.240;2023-04-21T09:24:31;95775.44;;;14.71;54.28
12757;BME280;31601;48.042;12.240;2023-04-21T09:26:58;95775.66;;;14.88;53.54
12757;BME280;31601;48.042;12.240;2023-04-21T09:29:28;95779.31;;;14.86;54.45
12757;BME280;31601;48.042;12.240;2023-04-21T09:31:54;95776.50;;;15.00;54.35
12757;BME280;31601;48.042;12.240;2023-04-21T09:34:22;95774.47;;;14.83;54.21
12757;BME280;31601;48.042;12.240;2023-04-21T09:36:58;95775.44;;;15.19;54.05
12757;BME280;31601;48.042;12.240;2023-04-21T09:39:27;95769.78;;;14.67;53.17
12757;BME280;31601;48.042;12.240;2023-04-21T09:41:54;95776.13;;;14.41;54.77
12757;BME280;31601;48.042;12.240;2023-04-21T09:44:21;95773.69;;;14.39;55.44
12757;BME280;31601;48.042;12.240;2023-04-21T09:46:51;95762.59;;;14.74;54.93
12757;BME280;31601;48.042;12.240;2023-04-21T09:49:21;95765.31;;;14.67;55.13
12757;BME280;31601;48.042;12.240;2023-04-21T09:51:48;95762.94;;;14.59;55.34
12757;BME280;31601;48.042;12.240;2023-04-21T09:54:16;95760.44;;;15.01;55.30
12757;BME280;31601;48.042;12.240;2023-04-21T09:56:48;95758.56;;;15.20;53.77
12757;BME280;31601;48.042;12.240;2023-04-21T09:59:18;95758.31;;;15.64;53.75
12757;BME280;31601;48.042;12.240;2023-04-21T10:01:47;95760.13;;;15.40;53.19
12757;BME280;31601;48.042;12.240;2023-04-21T10:04:15;95750.22;;;15.47;51.38
12757;BME280;31601;48.042;12.240;2023-04-21T10:06:44;95751.44;;;15.63;52.66
12757;BME280;31601;48.042;12.240;2023-04-21T10:09:10;95754.03;;;16.05;51.19
12757;BME280;31601;48.042;12.240;2023-04-21T10:11:38;95751.84;;;16.26;50.84
12757;BME280;31601;48.042;12.240;2023-04-21T10:14:07;95749.69;;;16.87;49.48
12757;BME280;31601;48.042;12.240;2023-04-21T10:16:34;95752.16;;;17.06;49.70
12757;BME280;31601;48.042;12.240;2023-04-21T10:19:21;95742.44;;;17.40;47.74
12757;BME280;31601;48.042;12.240;2023-04-21T10:21:48;95742.78;;;17.78;46.86
12757;BME280;31601;48.042;12.240;2023-04-21T10:24:15;95741.94;;;17.89;47.92
12757;BME280;31601;48.042;12.240;2023-04-21T10:26:41;95744.94;;;17.81;47.29
12757;BME280;31601;48.042;12.240;2023-04-21T10:29:09;95736.66;;;17.60;46.56
12757;BME280;31601;48.042;12.240;2023-04-21T10:31:39;95734.22;;;17.25;48.21
12757;BME280;31601;48.042;12.240;2023-04-21T10:34:20;95738.72;;;17.24;46.59
12757;BME280;31601;48.042;12.240;2023-04-21T10:37:09;95727.19;;;17.47;48.44
12757;BME280;31601;48.042;12.240;2023-04-21T10:39:43;95727.50;;;17.85;48.04
12757;BME280;31601;48.042;12.240;2023-04-21T10:42:21;95719.66;;;17.90;47.03
12757;BME280;31601;48.042;12.240;2023-04-21T10:45:09;95727.84;;;17.88;46.08
12757;BME280;31601;48.042;12.240;2023-04-21T10:47:41;95721.81;;;17.93;46.97
12757;BME280;31601;48.042;12.240;2023-04-21T10:50:27;95718.16;;;18.16;46.82
12757;BME280;31601;48.042;12.240;2023-04-21T10:52:56;95721.25;;;18.08;46.70
12757;BME280;31601;48.042;12.240;2023-04-21T10:55:25;95718.63;;;18.30;47.20
12757;BME280;31601;48.042;12.240;2023-04-21T10:57:52;95722.50;;;18.22;46.37
12757;BME280;31601;48.042;12.240;2023-04-21T11:00:22;95717.28;;;18.50;47.74
12757;BME280;31601;48.042;12.240;2023-04-21T11:02:54;95710.00;;;18.62;46.31
12757;BME280;31601;48.042;12.240;2023-04-21T11:05:26;95700.75;;;18.87;45.21
12757;BME280;31601;48.042;12.240;2023-04-21T11:08:10;95707.38;;;18.23;44.80
12757;BME280;31601;48.042;12.240;2023-04-21T11:10:45;95701.41;;;18.55;46.25
12757;BME280;31601;48.042;12.240;2023-04-21T11:13:12;95690.97;;;18.92;45.60
12757;BME280;31601;48.042;12.240;2023-04-21T11:15:39;95691.81;;;18.98;45.36
12757;BME280;31601;48.042;12.240;2023-04-21T11:18:06;95690.63;;;19.11;45.16
12757;BME280;31601;48.042;12.240;2023-04-21T11:20:33;95687.13;;;18.61;45.85
12757;BME280;31601;48.042;12.240;2023-04-21T11:22:59;95684.66;;;18.76;45.28
12757;BME280;31601;48.042;12.240;2023-04-21T11:25:25;95680.66;;;18.74;45.24
12757;BME280;31601;48.042;12.240;2023-04-21T11:27:53;95677.06;;;18.63;43.60
12757;BME280;31601;48.042;12.240;2023-04-21T11:30:20;95672.91;;;18.94;43.94
12757;BME280;31601;48.042;12.240;2023-04-21T11:32:53;95671.72;;;19.40;43.32
12757;BME280;31601;48.042;12.240;2023-04-21T11:35:20;95679.25;;;19.16;42.23
12757;BME280;31601;48.042;12.240;2023-04-21T11:37:49;95674.78;;;18.94;43.31
12757;BME280;31601;48.042;12.240;2023-04-21T11:40:16;95675.22;;;18.86;44.42
12757;BME280;31601;48.042;12.240;2023-04-21T11:42:42;95671.00;;;18.68;44.49
12757;BME280;31601;48.042;12.240;2023-04-21T11:45:15;95662.22;;;19.17;44.54
12757;BME280;31601;48.042;12.240;2023-04-21T11:47:42;95665.94;;;18.88;42.77
12757;BME280;31601;48.042;12.240;2023-04-21T11:50:10;95656.25;;;19.69;43.56
12757;BME280;31601;48.042;12.240;2023-04-21T11:52:36;95663.22;;;19.75;42.79
12757;BME280;31601;48.042;12.240;2023-04-21T11:55:05;95662.16;;;19.71;41.72
12757;BME280;31601;48.042;12.240;2023-04-21T11:57:32;95654.50;;;19.47;40.42
12757;BME280;31601;48.042;12.240;2023-04-21T12:00:01;95660.31;;;19.77;42.03
12757;BME280;31601;48.042;12.240;2023-04-21T12:02:30;95654.75;;;19.78;42.32
12757;BME280;31601;48.042;12.240;2023-04-21T12:04:58;95653.66;;;19.74;40.67
12757;BME280;31601;48.042;12.240;2023-04-21T12:07:28;95660.94;;;19.57;41.32
12757;BME280;31601;48.042;12.240;2023-04-21T12:09:55;95656.19;;;19.91;41.82
12757;BME280;31601;48.042;12.240;2023-04-21T12:12:22;95656.41;;;19.52;42.27
12757;BME280;31601;48.042;12.240;2023-04-21T12:14:49;95654.59;;;19.25;42.71
12757;BME280;31601;48.042;12.240;2023-04-21T12:17:16;95642.78;;;19.43;43.39
12757;BME280;31601;48.042;12.240;2023-04-21T12:19:43;95647.91;;;19.55;42.36
12757;BME280;31601;48.042;12.240;2023-04-21T12:22:11;95643.81;;;19.42;41.41
12757;BME280;31601;48.042;12.240;2023-04-21T12:24:39;95652.78;;;19.31;43.05
12757;BME280;31601;48.042;12.240;2023-04-21T12:27:06;95648.59;;;19.40;42.52
12757;BME280;31601;48.042;12.240;2023-04-21T12:29:33;95648.03;;;19.38;40.73
12757;BME280;31601;48.042;12.240;2023-04-21T12:32:01;95639.50;;;19.68;41.35
12757;BME280;31601;48.042;12.240;2023-04-21T12:34:28;95641.25;;;19.85;41.06
12757;BME280;31601;48.042;12.240;2023-04-21T12:36:54;95631.75;;;19.62;41.08
12757;BME280;31601;48.042;12.240;2023-04-21T12:39:21;95638.41;;;20.02;40.58
12757;BME280;31601;48.042;12.240;2023-04-21T12:41:48;95644.84;;;19.74;42.12
12757;BME280;31601;48.042;12.240;2023-04-21T12:44:15;95636.03;;;20.11;39.66
12757;BME280;31601;48.042;12.240;2023-04-21T12:46:41;95636.78;;;19.96;39.95
12757;BME280;31601;48.042;12.240;2023-04-21T12:49:08;95636.28;;;20.04;38.80
12757;BME280;31601;48.042;12.240;2023-04-21T12:51:35;95630.41;;;19.64;41.88
12757;BME280;31601;48.042;12.240;2023-04-21T12:54:01;95634.66;;;20.03;41.31
12757;BME280;31601;48.042;12.240;2023-04-21T12:56:28;95626.63;;;19.93;40.53